Startpagina
METAR-TAF:

METAR-TAF

Vliegvelden :

Curaçao, Nederlandse Antillen

Curaçao International Airport

breedte: 12-12N, lengte: 068-58W, hoogte: 9 m

Actueel weer

Dit bericht is 49 minuten geleden gemaakt, om 16:00 UTC
Wind 13 kt uit het oosten, variërend tussen het oostnoordoosten en het zuidoosten
Temperatuur 30°C
Vochtigheid 70%
Druk 1014 hPa
Zicht: 9000 m
Verspreide wolken op 2200 ft

METAR: TNCC 231600Z 10013KT 060V130 9000 SCT022 30/24 Q1014 NOSIG

Tijdstip: 12:49 (16:49 UTC)

Verwachting

Dit bericht is 7 uur en het 49 minuten geleden gemaakt, om 09:00 UTC
Verwachting geldig van 23 om 12 UTC tot 24 om 12 UTC
Wind 16 kt uit het oosten met uitschieters tot 30 kt
Zicht 10 km of meer
Verspreide wolken op 2000 ft
Tijdelijke
van 23 om 12 UTC tot 23 om 14 UTC
Gebroken wolken op 1500 ft

TAF: TNCC 230900Z 2312/2412 09016G30KT 9999 SCT020 TEMPO 2312/2314 BKN015

Waarnemingen en weersverwachtingen van meer dan 4000 vliegvelden (METAR en TAF).

De beschikbare stations zijn de gele en rode punten op de kaart.

Ga met uw muis naar het station om de naam te zien.

Klik dan om waarnemingen en weersverwachtingen te zien.

kaart wijzigen: klik op de groene knoppen met een zwart kruis om in te zoomen, op de groene knop met een streepje om uit te zoomen of op de groene pijlen voor aangrenzende kaarten.


METAR-TAF: